Historyczne dane pomiarowe

Dodano dane terminowe – wersja testowa.

Dane z okresu 1951-2019

Wersja bazy: 1.34 [2019-03-16, lista zmian], aktualizacja planowana na 2019-04-15

Dane meteo z obszaru Polski uzyskane na podstawie danych udostępnionych przez Instytut Meteorologii i Gospodarki Wodnej – Państwowy Instytut Badawczy.

 

Wybierz Datę:    

       

TemperaturaWilgotnośćWiatrCiśnienieOpadyŚniegCzas trwania zjawisk
 Stacja t tx tn tng RH VA  wxwx mslp ppp RRR   cm mm wxwxwxwxwxwxwx
1994-08-14 15.8 20.5 11.2- 72.8- 4.7 3.0---- 0.1------------
1994-08-13 17.1 22.0 12.2- 78.0- 6.3 3.0---- 2.3------------
1994-08-12 15.6 22.1 12.6- 89.5- 7.0 2.0---- 5.3------------
1994-08-11 18.3 25.1 12.6- 82.5- 6.0 1.3---- 6.2------------
1994-08-10 19.1 27.3 12.0- 73.5- 1.7 3.7---- 0.3------------
1994-08-09 18.8 22.8 15.0- 88.3- 7.7 2.0---- 4.6------------
1994-08-08 21.2 28.6 14.5- 75.3- 7.0 1.7---- 0.0------------
1994-08-07 21.2 29.7 15.0- 75.0- 7.0 0.0---- 0.0------------
1994-08-06 22.6 30.7 12.0- 74.8- 3.0 1.7---- 1.3------------
1994-08-05 21.4 28.4 14.0- 70.8- 1.7 1.7---- 0.0------------
1994-08-04 21.1 27.3 15.2- 78.3- 6.0 0.7---- 0.2------------
1994-08-03 20.4 28.8 15.0- 74.0- 6.7 3.0---- 4.0------------
1994-08-02 21.9 31.9 13.5- 70.5- 2.3 0.0---- 0.0------------
1994-08-01 22.7 33.5 14.5- 64.8- 3.0 1.3---- 0.0------------
1994-07-31 23.7 33.1 12.5 0.0 62.5- 1.7 0.0---- 0.0------------
1994-07-30 22.3 32.9 12.3- 65.3- 0.7 0.7---- 0.0------------
1994-07-29 21.1 32.3 11.3- 62.0- 0.3 0.0---- 0.0------------
1994-07-28 21.4 30.7 11.7- 64.5- 2.3 2.0---- 0.0------------
1994-07-27 21.7 31.5 12.0- 69.5- 1.7 0.0---- 0.0------------
1994-07-26 21.6 30.7 12.8- 66.5- 1.7 0.0---- 0.0------------
1994-07-25 19.8 29.6 11.5- 68.8- 4.0 0.3---- 0.0------------
1994-07-24 20.8 28.1 10.5- 64.8- 2.0 0.7---- 0.0------------
1994-07-23 18.5 26.4 7.9- 69.8- 1.3 1.3---- 0.0------------
1994-07-22 18.3 25.9 7.8- 69.5- 1.0 1.7---- 0.0------------
1994-07-21 16.5 24.6 7.4- 75.3- 0.0 1.3---- 0.0------------
1994-07-20 17.3 22.0 10.5- 77.8- 3.7 1.7---- 0.0------------
1994-07-19 18.5 23.6 14.0- 81.3- 5.3 2.3---- 0.0------------
1994-07-18 20.0 24.6 16.5- 84.8- 5.0 1.3---- 8.5------------
1994-07-17 19.7 26.4 13.6- 82.3- 7.0 0.3---- 2.0------------
1994-07-16 20.0 28.4 12.0- 79.0- 3.3 1.3---- 0.0------------
1994-07-15 18.8 25.6 13.0- 81.8- 6.7 0.0---- 0.0------------
1994-07-14 17.8 26.6 11.2- 82.3- 5.7 1.7---- 16.2------------
1994-07-13 18.7 26.1 10.0- 76.8- 4.3 1.3---- 0.0------------
1994-07-12 18.7 23.9 13.5- 80.8- 5.7 1.3---- 0.0------------
1994-07-11 16.2 21.6 11.0- 83.8- 6.3 1.7---- 1.5------------
1994-07-10 14.2 17.6 11.6- 92.0- 7.3 1.0---- 2.8------------
1994-07-09 13.9 19.5 7.7- 80.5- 6.3 3.0---- 6.3------------
1994-07-08 17.7 20.1 13.6- 70.8- 5.0 3.0---- 0.0------------
1994-07-07 17.1 25.8 8.5- 80.0- 6.7 1.7---- 7.6------------
1994-07-06 19.9 24.1 12.6- 65.0- 2.7 1.3---- 0.0------------
1994-07-05 18.2 25.1 10.5- 76.3- 7.3 1.3---- 0.4------------
1994-07-04 18.1 27.2 8.0- 72.0- 1.3 1.7---- 0.0------------
1994-07-03 16.6 25.5 6.7- 72.3- 0.3 1.3---- 0.0------------
1994-07-02 16.4 22.6 7.4- 75.5- 1.0 1.7---- 0.0------------
1994-07-01 18.8 21.5 16.5- 76.0- 4.0 1.3---- 0.0------------
1994-06-30 20.8 27.1 16.4- 86.5- 4.3 2.0---- 7.7------------
1994-06-29 21.5 29.1 13.5- 82.8- 2.3 1.3---- 0.0------------
1994-06-28 21.4 28.5 14.5- 83.3- 2.7 1.7---- 0.0------------
1994-06-27 20.8 30.3 12.9- 77.5- 2.7 1.0---- 0.0------------
1994-06-26 18.6 27.8 6.6- 67.8- 1.7 1.3---- 0.0------------
1994-06-25 13.9 22.8 2.5- 69.3- 0.0 1.3---- 0.0------------
1994-06-24 14.2 21.2 4.5- 65.0- 1.0 3.0---- 0.0------------
1994-06-23 17.3 23.7 14.0- 71.0- 4.7 3.0---- 0.0------------
1994-06-22 17.4 26.1 6.4- 69.5- 3.7 2.0---- 0.0------------
1994-06-21 15.1 20.4 6.8- 69.0- 2.3 3.0---- 0.0------------
1994-06-20 16.3 23.1 8.6- 76.0- 4.3 3.7---- 0.0------------
1994-06-19 16.5 23.6 10.3- 78.5- 4.7 4.0---- 0.0------------
1994-06-18 11.3 18.0 3.9- 79.0- 5.3 1.3---- 9.4------------
1994-06-17 10.6 14.1 8.3- 81.0- 8.0 3.3---- 2.7------------
1994-06-16 12.1 17.6 5.4- 78.8- 5.3 2.3---- 0.9------------
218.2 ms

 

Źródłem pochodzenia danych jest Instytut Meteorologii i Gospodarki Wodnej – Państwowy Instytut Badawczy. Dane Instytutu Meteorologii i Gospodarki Wodnej – Państwowego Instytutu Badawczego zostały przetworzone.

Dane źródłowe można odnaleźć na stronie https://dane.imgw.pl